createdAt,value
2023-04-09T00:02:06.541Z,7.47
2023-04-09T00:05:48.284Z,9.43
2023-04-09T00:09:30.444Z,10.35
2023-04-09T00:13:12.230Z,10.02
2023-04-09T00:16:54.635Z,8.38
2023-04-09T00:20:36.594Z,13.35
2023-04-09T00:24:18.488Z,9.88
2023-04-09T00:28:00.230Z,10.50
2023-04-09T00:31:42.082Z,7.88
2023-04-09T00:35:24.536Z,10.05
2023-04-09T00:39:06.258Z,8.45
2023-04-09T00:42:48.138Z,9.18
2023-04-09T00:46:31.134Z,9.02
2023-04-09T00:50:12.936Z,8.23
2023-04-09T00:53:55.971Z,10.45
2023-04-09T00:57:37.956Z,10.10
2023-04-09T01:01:19.724Z,9.85
2023-04-09T01:05:01.585Z,10.02
2023-04-09T01:09:01.586Z,12.50
2023-04-09T01:13:27.874Z,10.75
2023-04-09T01:17:48.324Z,12.88
2023-04-09T01:21:32.587Z,10.57
2023-04-09T01:25:53.037Z,12.13
2023-04-09T01:29:47.185Z,13.88
2023-04-09T01:33:30.983Z,17.00
2023-04-09T01:37:13.625Z,15.75
2023-04-09T01:40:57.446Z,13.50
2023-04-09T01:44:41.526Z,15.25
2023-04-09T01:48:24.369Z,15.50
2023-04-09T01:52:06.830Z,13.60
2023-04-09T01:55:48.577Z,13.63
2023-04-09T01:59:30.334Z,13.98
2023-04-09T02:03:23.341Z,14.27
2023-04-09T02:07:06.890Z,12.77
2023-04-09T02:10:55.403Z,14.02
2023-04-09T02:14:38.304Z,15.65
2023-04-09T02:18:24.797Z,12.15
2023-04-09T02:22:06.582Z,13.82
2023-04-09T02:25:48.521Z,17.23
2023-04-09T02:29:31.120Z,14.30
2023-04-09T02:33:12.845Z,11.93
2023-04-09T02:36:54.586Z,12.60
2023-04-09T02:40:36.279Z,13.48
2023-04-09T02:44:18.030Z,14.02
2023-04-09T02:47:59.744Z,14.95
2023-04-09T02:51:41.479Z,14.18
2023-04-09T02:55:23.300Z,16.08
2023-04-09T02:59:05.025Z,13.82
2023-04-09T03:02:46.842Z,17.77
2023-04-09T03:06:28.772Z,17.00
2023-04-09T03:10:11.162Z,12.45
2023-04-09T03:13:52.905Z,17.98
2023-04-09T03:17:34.693Z,13.48
2023-04-09T03:21:16.580Z,15.68
2023-04-09T03:24:58.273Z,15.25
2023-04-09T03:28:40.025Z,17.00
2023-04-09T03:32:21.741Z,14.10
2023-04-09T03:36:03.765Z,13.75
2023-04-09T03:39:45.533Z,14.57
2023-04-09T03:43:27.428Z,13.73
2023-04-09T03:47:09.152Z,14.20
2023-04-09T03:50:50.907Z,13.43
2023-04-09T03:54:32.997Z,13.55
2023-04-09T03:58:14.693Z,14.05
2023-04-09T04:01:56.641Z,14.23
2023-04-09T04:05:38.353Z,12.38
2023-04-09T04:09:20.156Z,16.30
2023-04-09T04:13:02.386Z,14.77
2023-04-09T04:16:44.225Z,15.88
2023-04-09T04:20:26.559Z,13.20
2023-04-09T04:24:08.298Z,13.43
2023-04-09T04:27:49.986Z,17.50
2023-04-09T04:31:31.763Z,15.05
2023-04-09T04:35:13.677Z,16.75
2023-04-09T04:38:55.480Z,15.65
2023-04-09T04:42:37.291Z,14.52
2023-04-09T04:46:20.567Z,16.02
2023-04-09T04:50:02.543Z,15.30
2023-04-09T04:53:44.279Z,15.70
2023-04-09T04:57:25.981Z,16.00
2023-04-09T05:01:07.913Z,16.05
2023-04-09T05:04:49.638Z,14.30
2023-04-09T05:08:31.764Z,16.65
2023-04-09T05:12:15.144Z,18.92
2023-04-09T05:15:56.846Z,15.80
2023-04-09T05:19:38.608Z,16.10
2023-04-09T05:23:20.332Z,14.45
2023-04-09T05:27:02.057Z,15.73
2023-04-09T05:30:47.440Z,19.73
2023-04-09T05:34:29.352Z,17.13
2023-04-09T05:38:11.201Z,19.17
2023-04-09T05:41:52.976Z,16.63
2023-04-09T05:45:34.680Z,17.52
2023-04-09T05:49:16.426Z,15.80
2023-04-09T05:52:58.142Z,16.70
2023-04-09T05:56:39.876Z,22.00
2023-04-09T06:00:21.997Z,22.92
2023-04-09T06:04:04.025Z,25.60
2023-04-09T06:07:46.186Z,26.02
2023-04-09T06:11:27.935Z,30.00
2023-04-09T06:15:10.233Z,31.05
2023-04-09T06:18:54.473Z,29.23
2023-04-09T06:22:36.352Z,30.27
2023-04-09T06:26:18.038Z,35.50
2023-04-09T06:29:59.745Z,37.70
2023-04-09T06:33:41.473Z,34.35
2023-04-09T06:37:23.154Z,41.47
2023-04-09T06:41:08.346Z,36.95
2023-04-09T06:44:50.534Z,43.10
2023-04-09T06:48:32.455Z,34.85
2023-04-09T06:52:14.158Z,42.50
2023-04-09T06:55:57.092Z,42.97
2023-04-09T06:59:38.995Z,40.80
2023-04-09T07:03:21.152Z,41.35
2023-04-09T07:07:03.165Z,42.40
2023-04-09T07:10:47.270Z,43.05
2023-04-09T07:14:29.013Z,41.65
2023-04-09T07:18:11.131Z,36.97
2023-04-09T07:21:52.954Z,44.80
2023-04-09T07:25:34.669Z,43.10
2023-04-09T07:29:16.346Z,42.97
2023-04-09T07:32:58.269Z,44.35
2023-04-09T07:36:41.236Z,45.72
2023-04-09T07:40:23.198Z,42.65
2023-04-09T07:44:06.388Z,45.70
2023-04-09T07:47:48.443Z,42.17
2023-04-09T07:51:31.464Z,45.28
2023-04-09T07:55:13.172Z,42.25
2023-04-09T07:58:55.166Z,44.63
2023-04-09T08:02:36.975Z,42.72
2023-04-09T08:06:18.742Z,38.50
2023-04-09T08:10:00.418Z,39.90
2023-04-09T08:13:42.155Z,41.35
2023-04-09T08:17:24.600Z,38.17
2023-04-09T08:21:07.100Z,37.28
2023-04-09T08:24:54.053Z,39.20
2023-04-09T08:28:35.784Z,41.05
2023-04-09T08:32:17.705Z,35.75
2023-04-09T08:36:00.842Z,32.35
2023-04-09T08:39:44.513Z,35.88
2023-04-09T08:43:41.953Z,41.78
2023-04-09T08:47:31.075Z,34.65
2023-04-09T08:51:17.031Z,32.78
2023-04-09T08:54:58.781Z,30.75
2023-04-09T08:58:45.298Z,34.90
2023-04-09T09:02:27.107Z,32.85
2023-04-09T09:06:22.013Z,32.90
2023-04-09T09:10:04.551Z,38.33
2023-04-09T09:13:46.393Z,36.75
2023-04-09T09:17:28.246Z,34.03
2023-04-09T09:21:14.748Z,32.00
2023-04-09T09:24:57.409Z,28.50
2023-04-09T09:28:39.220Z,33.92
2023-04-09T09:32:23.466Z,27.55
2023-04-09T09:36:05.694Z,30.15
2023-04-09T09:39:47.457Z,25.52
2023-04-09T09:43:41.244Z,27.15
2023-04-09T09:47:25.189Z,26.75
2023-04-09T09:51:11.812Z,28.73
2023-04-09T09:54:55.786Z,26.30
2023-04-09T09:58:54.833Z,25.08
2023-04-09T10:02:47.677Z,24.58
2023-04-09T10:06:30.852Z,23.83
2023-04-09T10:10:12.647Z,21.08
2023-04-09T10:13:58.847Z,20.33
2023-04-09T10:17:40.956Z,19.27
2023-04-09T10:21:25.453Z,23.50
2023-04-09T10:25:08.092Z,22.77
2023-04-09T10:29:06.989Z,18.42
2023-04-09T10:32:48.708Z,21.63
2023-04-09T10:36:31.835Z,20.05
2023-04-09T10:40:20.509Z,21.95
2023-04-09T10:44:06.573Z,14.60
2023-04-09T10:47:51.609Z,18.92
2023-04-09T10:51:38.796Z,15.93
2023-04-09T10:55:39.544Z,17.47
2023-04-09T10:59:21.260Z,15.55
2023-04-09T11:03:04.248Z,16.58
2023-04-09T11:06:47.418Z,16.67
2023-04-09T11:10:29.347Z,15.75
2023-04-09T11:14:11.107Z,13.27
2023-04-09T11:17:53.191Z,13.35
2023-04-09T11:21:36.332Z,13.05
2023-04-09T11:25:22.925Z,14.68
2023-04-09T11:29:09.176Z,12.88
2023-04-09T11:32:51.247Z,14.60
2023-04-09T11:36:34.804Z,13.00
2023-04-09T11:40:24.843Z,13.38
2023-04-09T11:44:08.161Z,14.95
2023-04-09T11:47:50.195Z,11.60
2023-04-09T11:51:32.692Z,11.65
2023-04-09T11:55:27.395Z,12.32
2023-04-09T11:59:10.073Z,10.10
2023-04-09T12:02:59.668Z,12.80
2023-04-09T12:06:42.629Z,14.40
2023-04-09T12:10:32.500Z,8.02
2023-04-09T12:14:18.581Z,10.38
2023-04-09T12:18:01.054Z,9.55
2023-04-09T12:21:58.342Z,9.52
2023-04-09T12:25:42.151Z,12.43
2023-04-09T12:29:25.899Z,9.38
2023-04-09T12:33:10.260Z,10.70
2023-04-09T12:36:52.748Z,11.13
2023-04-09T12:40:36.434Z,12.25
2023-04-09T12:44:18.139Z,8.85
2023-04-09T12:47:59.991Z,7.88
2023-04-09T12:51:41.735Z,8.35
2023-04-09T12:55:23.448Z,6.68
2023-04-09T12:59:05.992Z,9.45
2023-04-09T13:02:47.961Z,9.70
2023-04-09T13:06:29.840Z,9.77
2023-04-09T13:10:11.546Z,8.93
2023-04-09T13:13:53.705Z,9.18
2023-04-09T13:17:35.765Z,6.05
2023-04-09T13:21:18.839Z,7.95
2023-04-09T13:25:00.740Z,10.93
2023-04-09T13:28:42.441Z,9.77
2023-04-09T13:32:24.421Z,5.53
2023-04-09T13:36:06.711Z,8.48
2023-04-09T13:39:48.438Z,7.15
2023-04-09T13:43:30.186Z,7.13
2023-04-09T13:47:13.220Z,9.10
2023-04-09T13:50:55.018Z,7.40
2023-04-09T13:54:37.409Z,7.53
2023-04-09T13:58:20.044Z,6.50
2023-04-09T14:02:02.153Z,7.68
2023-04-09T14:05:43.931Z,8.43
2023-04-09T14:09:25.643Z,6.35
2023-04-09T14:13:10.476Z,8.57
2023-04-09T14:16:52.163Z,9.18
2023-04-09T14:20:35.530Z,5.97
2023-04-09T14:24:17.291Z,10.60
2023-04-09T14:27:59.111Z,8.57
2023-04-09T14:31:42.646Z,7.55
2023-04-09T14:35:24.618Z,6.18
2023-04-09T14:39:06.451Z,9.63
2023-04-09T14:42:48.594Z,7.32
2023-04-09T14:46:30.355Z,7.97
2023-04-09T14:50:12.898Z,6.18
2023-04-09T14:53:54.751Z,8.18
2023-04-09T14:57:36.685Z,7.65
2023-04-09T15:01:18.753Z,10.20
2023-04-09T15:05:01.066Z,11.48
2023-04-09T15:08:42.799Z,7.53
2023-04-09T15:12:24.640Z,7.03
2023-04-09T15:16:06.969Z,6.75
2023-04-09T15:19:48.768Z,9.63
2023-04-09T15:23:30.694Z,9.40
2023-04-09T15:27:12.418Z,10.30
2023-04-09T15:30:54.970Z,8.98
2023-04-09T15:34:36.866Z,7.53
2023-04-09T15:38:21.403Z,8.82
2023-04-09T15:42:03.339Z,9.63
2023-04-09T15:45:45.305Z,13.32
2023-04-09T15:49:27.136Z,7.90
2023-04-09T15:53:08.916Z,8.07
2023-04-09T15:56:50.624Z,10.10
2023-04-09T16:00:32.312Z,12.15
2023-04-09T16:04:15.406Z,10.20
2023-04-09T16:07:59.733Z,10.80
2023-04-09T16:11:41.759Z,13.75
2023-04-09T16:15:23.442Z,7.70
2023-04-09T16:19:05.317Z,7.03
2023-04-09T16:22:47.239Z,9.23
2023-04-09T16:26:28.986Z,8.25
2023-04-09T16:30:11.175Z,14.07
2023-04-09T16:33:52.973Z,7.78
2023-04-09T16:37:35.301Z,11.02
2023-04-09T16:41:17.011Z,10.48
2023-04-09T16:44:58.705Z,8.15
2023-04-09T16:48:41.753Z,8.13
2023-04-09T16:52:23.648Z,9.93
2023-04-09T16:56:06.637Z,11.25
2023-04-09T16:59:48.424Z,8.93
2023-04-09T17:03:30.558Z,11.68
2023-04-09T17:07:12.418Z,8.32
2023-04-09T17:11:01.747Z,11.23
2023-04-09T17:14:44.432Z,12.52
2023-04-09T17:18:26.405Z,9.88
2023-04-09T17:22:09.279Z,11.95
2023-04-09T17:25:51.004Z,11.52
2023-04-09T17:29:32.713Z,10.85
2023-04-09T17:33:14.628Z,15.00
2023-04-09T17:36:57.311Z,13.48
2023-04-09T17:40:39.089Z,12.32
2023-04-09T17:44:20.828Z,12.27
2023-04-09T17:48:02.909Z,13.55
2023-04-09T17:51:44.680Z,12.80
2023-04-09T17:55:27.264Z,15.10
2023-04-09T17:59:08.949Z,12.05
2023-04-09T18:02:54.437Z,12.13
2023-04-09T18:06:36.335Z,12.98
2023-04-09T18:10:18.097Z,16.05
2023-04-09T18:13:59.830Z,13.00
2023-04-09T18:17:41.718Z,14.52
2023-04-09T18:21:24.775Z,11.65
2023-04-09T18:25:07.221Z,19.88
2023-04-09T18:28:48.979Z,14.98
2023-04-09T18:32:31.064Z,15.23
2023-04-09T18:36:12.902Z,16.83
2023-04-09T18:39:54.744Z,13.23
2023-04-09T18:43:36.563Z,11.85
2023-04-09T18:47:18.392Z,18.75
2023-04-09T18:51:02.973Z,17.20
2023-04-09T18:54:44.679Z,13.48
2023-04-09T18:58:26.691Z,14.05
2023-04-09T19:02:08.655Z,16.95
2023-04-09T19:05:51.453Z,17.60
2023-04-09T19:09:33.608Z,12.55
2023-04-09T19:13:15.358Z,16.50
2023-04-09T19:16:58.671Z,21.73
2023-04-09T19:20:40.444Z,17.27
2023-04-09T19:24:22.166Z,18.38
2023-04-09T19:28:03.849Z,18.50
2023-04-09T19:31:46.384Z,19.90
2023-04-09T19:35:28.606Z,19.98
2023-04-09T19:39:11.079Z,18.55
2023-04-09T19:42:52.767Z,16.60
2023-04-09T19:46:34.669Z,19.60
2023-04-09T19:50:16.744Z,20.33
2023-04-09T19:53:58.497Z,18.27
2023-04-09T19:57:40.889Z,21.83
2023-04-09T20:01:22.811Z,22.55
2023-04-09T20:05:04.855Z,20.50
2023-04-09T20:08:46.723Z,21.38
2023-04-09T20:12:29.504Z,21.60
2023-04-09T20:16:11.300Z,20.88
2023-04-09T20:19:53.508Z,21.40
2023-04-09T20:23:35.658Z,20.92
2023-04-09T20:27:18.489Z,20.67
2023-04-09T20:31:03.078Z,21.23
2023-04-09T20:34:44.843Z,21.27
2023-04-09T20:38:26.648Z,20.83
2023-04-09T20:42:08.324Z,21.10
2023-04-09T20:45:50.178Z,22.90
2023-04-09T20:49:31.992Z,23.63
2023-04-09T20:53:13.753Z,25.67
2023-04-09T20:56:55.926Z,22.88
2023-04-09T21:00:37.642Z,23.70
2023-04-09T21:04:19.593Z,23.92
2023-04-09T21:08:01.508Z,21.92
2023-04-09T21:11:43.253Z,21.45
2023-04-09T21:15:25.205Z,23.35
2023-04-09T21:19:07.228Z,24.20
2023-04-09T21:22:49.010Z,23.83
2023-04-09T21:26:38.643Z,25.38
2023-04-09T21:30:32.273Z,21.17
2023-04-09T21:34:14.089Z,22.60
2023-04-09T21:37:56.730Z,23.17
2023-04-09T21:41:39.300Z,23.48
2023-04-09T21:45:21.170Z,26.80
2023-04-09T21:49:03.627Z,23.50
2023-04-09T21:52:46.775Z,25.90
2023-04-09T21:56:28.476Z,23.25
2023-04-09T22:00:11.100Z,23.60
2023-04-09T22:03:52.959Z,26.95
2023-04-09T22:07:37.204Z,26.88
2023-04-09T22:11:19.522Z,30.38
2023-04-09T22:15:01.473Z,28.25
2023-04-09T22:18:43.160Z,26.80
2023-04-09T22:22:25.039Z,30.23
2023-04-09T22:26:06.856Z,33.72
2023-04-09T22:29:48.555Z,30.67
2023-04-09T22:33:30.432Z,29.00
2023-04-09T22:37:12.436Z,32.75
2023-04-09T22:40:57.030Z,30.38
2023-04-09T22:44:40.058Z,33.67
2023-04-09T22:48:22.790Z,32.03
2023-04-09T22:52:05.561Z,36.83
2023-04-09T22:55:50.751Z,34.83
2023-04-09T22:59:40.015Z,32.58
2023-04-09T23:03:22.675Z,31.88
2023-04-09T23:07:04.728Z,33.05
2023-04-09T23:10:46.532Z,31.35
2023-04-09T23:14:28.317Z,28.30
2023-04-09T23:18:10.895Z,30.30
2023-04-09T23:21:52.632Z,31.10
2023-04-09T23:25:34.459Z,24.08
2023-04-09T23:29:16.156Z,33.70
2023-04-09T23:32:58.225Z,28.20
2023-04-09T23:36:40.044Z,27.13
2023-04-09T23:40:21.893Z,25.60
2023-04-09T23:44:03.776Z,21.98
2023-04-09T23:47:46.193Z,23.27
2023-04-09T23:51:27.981Z,18.40
2023-04-09T23:55:10.758Z,16.88
2023-04-09T23:58:52.528Z,13.82
